WSSS METAR and TAF | Updated Today

WSSS METAR

Singapore Changi Airport

Observation time: 15 min. ago

WSSS 291100Z 23005KT 190V320 9999 FEW020 BKN300 32/20 Q1007 NOSIG

Need help? Read our tutorial on how to read METARs or read the parsed version below.

Singapore Changi Airport (WSSS) METAR

  • Weather conditions on Sun, 29 May 2022 11:00:00 +0000 (15 min. ago):
  • Present conditions: Dry
  • Clouds: A few at 610 meters; broken sky at 9144 meters
  • Visibility: Greater than 10 km
  • Wind: 230 degrees at 5 knots
  • Temperature: 32 celsius
  • Dew point: 20 celsius
  • Pressure: 1007 millibars
  • Remarks: None


Useful to know...

WSSS TAF

Singapore Changi Airport

TAF AMD WSSS 290800Z 2908/3012 21007KT 9999 FEW015 SCT020
Observation time: 3:15 hr. ago
Need help? Read our tutorial on how to read TAFs or read the parsed version below.

Parsed version of TAF for Singapore Changi Airport (WSSS)

  • From 29 May at 08:00 UTC, to day 30 of the month at 12:00 UTC
  • Clouds: A few at 457 meters; scattered at 610 meters
  • Visibility: Greater than 10 km
  • Wind: 210 degrees at 7